createdAt,value
2022-09-22T00:02:18.086Z,95760
2022-09-22T00:05:43.244Z,95762
2022-09-22T00:09:08.491Z,95754
2022-09-22T00:12:33.742Z,95755
2022-09-22T00:15:58.991Z,95755
2022-09-22T00:19:24.169Z,95755
2022-09-22T00:22:49.435Z,95754
2022-09-22T00:26:14.671Z,95752
2022-09-22T00:29:39.889Z,95753
2022-09-22T00:33:05.114Z,95753
2022-09-22T00:36:30.308Z,95752
2022-09-22T00:39:55.559Z,95749
2022-09-22T00:43:20.761Z,95747
2022-09-22T00:46:46.039Z,95750
2022-09-22T00:50:11.213Z,95749
2022-09-22T00:53:36.464Z,95749
2022-09-22T00:57:01.694Z,95748
2022-09-22T01:00:26.940Z,95752
2022-09-22T01:03:52.186Z,95743
2022-09-22T01:07:17.417Z,95746
2022-09-22T01:10:42.642Z,95741
2022-09-22T01:14:07.970Z,95740
2022-09-22T01:17:33.083Z,95740
2022-09-22T01:20:58.336Z,95735
2022-09-22T01:24:23.536Z,95734
2022-09-22T01:27:48.782Z,95732
2022-09-22T01:31:14.046Z,95729
2022-09-22T01:34:39.237Z,95730
2022-09-22T01:38:04.471Z,95732
2022-09-22T01:41:29.667Z,95731
2022-09-22T01:44:54.920Z,95725
2022-09-22T01:48:20.143Z,95727
2022-09-22T01:51:45.381Z,95720
2022-09-22T01:55:10.616Z,95717
2022-09-22T01:58:35.846Z,95716
2022-09-22T02:02:01.213Z,95709
2022-09-22T02:05:27.026Z,95710
2022-09-22T02:08:52.256Z,95705
2022-09-22T02:12:17.482Z,95713
2022-09-22T02:15:42.705Z,95710
2022-09-22T02:19:12.842Z,95709
2022-09-22T02:22:33.131Z,95704
2022-09-22T02:25:58.347Z,95707
2022-09-22T02:29:23.576Z,95707
2022-09-22T02:32:48.793Z,95703
2022-09-22T02:36:14.010Z,95697
2022-09-22T02:39:39.230Z,95697
2022-09-22T02:43:04.453Z,95696
2022-09-22T02:46:29.719Z,95698
2022-09-22T02:49:54.882Z,95697
2022-09-22T02:53:20.090Z,95693
2022-09-22T02:56:45.363Z,95693
2022-09-22T03:00:10.579Z,95690
2022-09-22T03:03:35.815Z,95690
2022-09-22T03:07:01.017Z,95693
2022-09-22T03:10:26.223Z,95693
2022-09-22T03:13:51.429Z,95689
2022-09-22T03:17:16.650Z,95687
2022-09-22T03:20:41.936Z,95690
2022-09-22T03:24:07.175Z,95683
2022-09-22T03:27:32.360Z,95683
2022-09-22T03:30:57.640Z,95684
2022-09-22T03:34:22.785Z,95678
2022-09-22T03:37:48.031Z,95681
2022-09-22T03:41:14.833Z,95678
2022-09-22T03:44:40.300Z,95679
2022-09-22T03:48:05.776Z,95678
2022-09-22T03:51:31.369Z,95671
2022-09-22T03:54:56.867Z,95679
2022-09-22T03:58:22.407Z,95682
2022-09-22T04:01:48.017Z,95680
2022-09-22T04:05:13.436Z,95677
2022-09-22T04:08:39.153Z,95675
2022-09-22T04:12:04.745Z,95676
2022-09-22T04:15:30.390Z,95670
2022-09-22T04:18:55.916Z,95670
2022-09-22T04:22:21.359Z,95671
2022-09-22T04:25:46.857Z,95669
2022-09-22T04:29:12.397Z,95676
2022-09-22T04:32:37.901Z,95675
2022-09-22T04:36:03.346Z,95668
2022-09-22T04:39:28.926Z,95670
2022-09-22T04:42:54.388Z,95669
2022-09-22T04:46:19.926Z,95668
2022-09-22T04:49:45.433Z,95667
2022-09-22T04:53:10.880Z,95672
2022-09-22T04:56:36.312Z,95675
2022-09-22T05:00:01.780Z,95674
2022-09-22T05:03:27.322Z,95669
2022-09-22T05:06:52.665Z,95673
2022-09-22T05:10:18.145Z,95672
2022-09-22T05:13:43.588Z,95674
2022-09-22T05:17:09.049Z,95677
2022-09-22T05:20:34.530Z,95675
2022-09-22T05:24:00.040Z,95678
2022-09-22T05:27:25.484Z,95684
2022-09-22T05:30:50.865Z,95682
2022-09-22T05:34:16.382Z,95677
2022-09-22T05:37:41.876Z,95674
2022-09-22T05:41:07.287Z,95671
2022-09-22T05:44:32.761Z,95669
2022-09-22T05:47:58.239Z,95674
2022-09-22T05:51:23.720Z,95678
2022-09-22T05:54:49.293Z,95676
2022-09-22T05:58:14.616Z,95677
2022-09-22T06:01:40.083Z,95689
2022-09-22T06:05:05.555Z,95688
2022-09-22T06:08:31.022Z,95686
2022-09-22T06:11:56.494Z,95682
2022-09-22T06:15:21.928Z,95683
2022-09-22T06:18:47.391Z,95687
2022-09-22T06:22:12.854Z,95686
2022-09-22T06:25:38.312Z,95681
2022-09-22T06:29:03.792Z,95683
2022-09-22T06:32:29.260Z,95684
2022-09-22T06:35:54.727Z,95691
2022-09-22T06:39:20.155Z,95691
2022-09-22T06:42:45.624Z,95692
2022-09-22T06:46:11.113Z,95684
2022-09-22T06:49:36.475Z,95685
2022-09-22T06:53:01.908Z,95687
2022-09-22T06:56:27.380Z,95680
2022-09-22T06:59:52.833Z,95683
2022-09-22T07:03:18.369Z,95679
2022-09-22T07:06:43.773Z,95682
2022-09-22T07:10:09.246Z,95676
2022-09-22T07:13:34.750Z,95676
2022-09-22T07:17:00.224Z,95680
2022-09-22T07:20:26.688Z,95677
2022-09-22T07:23:52.128Z,95685
2022-09-22T07:27:17.620Z,95687
2022-09-22T07:30:43.082Z,95685
2022-09-22T07:34:08.534Z,95684
2022-09-22T07:37:34.045Z,95683
2022-09-22T07:40:59.469Z,95685
2022-09-22T07:44:24.926Z,95687
2022-09-22T07:47:50.387Z,95684
2022-09-22T07:51:16.834Z,95685
2022-09-22T07:54:41.302Z,95686
2022-09-22T07:58:06.732Z,95687
2022-09-22T08:01:32.194Z,95683
2022-09-22T08:04:57.663Z,95686
2022-09-22T08:08:23.104Z,95686
2022-09-22T08:11:48.859Z,95681
2022-09-22T08:15:13.982Z,95681
2022-09-22T08:18:39.495Z,95681
2022-09-22T08:22:04.951Z,95682
2022-09-22T08:25:30.443Z,95681
2022-09-22T08:28:55.889Z,95682
2022-09-22T08:32:21.317Z,95679
2022-09-22T08:35:46.773Z,95678
2022-09-22T08:39:12.255Z,95680
2022-09-22T08:42:37.739Z,95685
2022-09-22T08:46:03.199Z,95683
2022-09-22T08:49:28.613Z,95686
2022-09-22T08:52:54.087Z,95685
2022-09-22T08:56:19.547Z,95685
2022-09-22T08:59:44.989Z,95684
2022-09-22T09:03:10.557Z,95680
2022-09-22T09:06:35.937Z,95679
2022-09-22T09:10:01.404Z,95687
2022-09-22T09:13:26.862Z,95681
2022-09-22T09:16:52.317Z,95682
2022-09-22T09:20:17.890Z,95681
2022-09-22T09:27:08.736Z,95682
2022-09-22T09:30:34.202Z,95683
2022-09-22T09:33:59.646Z,95678
2022-09-22T09:37:25.144Z,95683
2022-09-22T09:40:50.615Z,95684
2022-09-22T09:44:20.133Z,95683
2022-09-22T09:47:41.509Z,95677
2022-09-22T09:51:06.954Z,95682
2022-09-22T09:54:32.421Z,95684
2022-09-22T09:57:57.849Z,95687
2022-09-22T10:01:24.403Z,95685
2022-09-22T10:04:50.080Z,95678
2022-09-22T10:08:15.596Z,95676
2022-09-22T10:11:41.082Z,95670
2022-09-22T10:15:06.721Z,95667
2022-09-22T10:18:32.299Z,95667
2022-09-22T10:21:57.773Z,95665
2022-09-22T10:25:23.330Z,95666
2022-09-22T10:28:48.807Z,95664
2022-09-22T10:32:14.293Z,95658
2022-09-22T10:35:39.817Z,95654
2022-09-22T10:39:05.258Z,95655
2022-09-22T10:42:30.778Z,95655
2022-09-22T10:45:57.235Z,95654
2022-09-22T10:49:23.619Z,95653
2022-09-22T10:52:49.411Z,95651
2022-09-22T10:56:14.982Z,95651
2022-09-22T10:59:40.426Z,95653
2022-09-22T11:03:05.937Z,95652
2022-09-22T11:06:31.375Z,95650
2022-09-22T11:09:56.873Z,95641
2022-09-22T11:13:22.363Z,95649
2022-09-22T11:16:47.826Z,95643
2022-09-22T11:20:13.393Z,95640
2022-09-22T11:23:38.842Z,95640
2022-09-22T11:27:04.366Z,95647
2022-09-22T11:30:29.951Z,95643
2022-09-22T11:33:55.513Z,95648
2022-09-22T11:37:20.987Z,95646
2022-09-22T11:40:46.732Z,95643
2022-09-22T11:44:12.154Z,95633
2022-09-22T11:47:37.644Z,95630
2022-09-22T11:51:03.158Z,95631
2022-09-22T11:54:28.659Z,95627
2022-09-22T11:57:54.099Z,95623
2022-09-22T12:01:19.568Z,95615
2022-09-22T12:04:45.076Z,95612
2022-09-22T12:08:10.565Z,95609
2022-09-22T12:11:36.260Z,95604
2022-09-22T12:15:01.727Z,95601
2022-09-22T12:18:27.233Z,95598
2022-09-22T12:21:52.745Z,95593
2022-09-22T12:25:25.975Z,95591
2022-09-22T12:28:43.770Z,95589
2022-09-22T12:32:09.275Z,95589
2022-09-22T12:35:34.758Z,95585
2022-09-22T12:39:00.224Z,95585
2022-09-22T12:42:25.858Z,95586
2022-09-22T12:45:51.426Z,95579
2022-09-22T12:49:17.701Z,95582
2022-09-22T12:52:44.101Z,95582
2022-09-22T12:56:09.595Z,95582
2022-09-22T12:59:35.152Z,95580
2022-09-22T13:03:03.006Z,95577
2022-09-22T13:06:28.690Z,95573
2022-09-22T13:09:55.151Z,95570
2022-09-22T13:13:20.740Z,95570
2022-09-22T13:16:46.349Z,95569
2022-09-22T13:20:11.803Z,95563
2022-09-22T13:23:37.302Z,95565
2022-09-22T13:27:02.789Z,95561
2022-09-22T13:30:28.351Z,95559
2022-09-22T13:33:53.833Z,95559
2022-09-22T13:37:19.345Z,95558
2022-09-22T13:40:44.858Z,95554
2022-09-22T13:44:10.305Z,95553
2022-09-22T13:47:35.764Z,95547
2022-09-22T13:51:01.252Z,95542
2022-09-22T13:54:26.755Z,95547
2022-09-22T13:57:52.258Z,95543
2022-09-22T14:01:18.075Z,95542
2022-09-22T14:04:43.516Z,95541
2022-09-22T14:08:12.644Z,95537
2022-09-22T14:11:34.490Z,95535
2022-09-22T14:15:00.113Z,95531
2022-09-22T14:18:25.897Z,95527
2022-09-22T14:21:51.103Z,95529
2022-09-22T14:25:16.603Z,95531
2022-09-22T14:28:42.040Z,95530
2022-09-22T15:06:30.386Z,95502
2022-09-22T15:10:02.459Z,95506
2022-09-22T15:13:27.813Z,95508
2022-09-22T15:16:53.188Z,95511
2022-09-22T15:20:18.631Z,95501
2022-09-22T15:23:44.071Z,95503
2022-09-22T15:27:09.288Z,95503
2022-09-22T15:30:34.654Z,95501
2022-09-22T15:33:59.972Z,95495
2022-09-22T15:37:25.277Z,95494
2022-09-22T15:40:50.621Z,95499
2022-09-22T15:44:16.106Z,95496
2022-09-22T15:47:41.430Z,95499
2022-09-22T15:51:06.767Z,95495
2022-09-22T15:54:32.082Z,95493
2022-09-22T15:57:57.413Z,95495
2022-09-22T16:01:22.784Z,95496
2022-09-22T16:04:48.081Z,95494
2022-09-22T16:08:13.394Z,95496
2022-09-22T16:11:38.730Z,95497
2022-09-22T16:15:04.084Z,95492
2022-09-22T16:18:29.384Z,95491
2022-09-22T16:21:54.698Z,95488
2022-09-22T16:25:20.032Z,95487
2022-09-22T16:28:45.345Z,95483
2022-09-22T16:32:10.682Z,95484
2022-09-22T16:35:36.225Z,95484
2022-09-22T16:39:01.737Z,95480
2022-09-22T16:42:27.234Z,95482
2022-09-22T16:45:52.712Z,95481
2022-09-22T16:49:18.274Z,95474
2022-09-22T16:52:43.769Z,95476
2022-09-22T16:56:09.263Z,95470
2022-09-22T16:59:34.785Z,95479
2022-09-22T17:03:00.318Z,95478
2022-09-22T17:06:25.880Z,95475
2022-09-22T17:09:51.395Z,95472
2022-09-22T17:13:16.873Z,95473
2022-09-22T17:16:42.484Z,95483
2022-09-22T17:20:07.978Z,95485
2022-09-22T17:23:33.568Z,95479
2022-09-22T17:26:59.022Z,95484
2022-09-22T17:30:24.512Z,95481
2022-09-22T17:33:52.397Z,95482
2022-09-22T20:14:39.565Z,95494
2022-09-22T20:18:04.835Z,95489
2022-09-22T20:21:30.175Z,95489
2022-09-22T20:24:55.501Z,95491
2022-09-22T20:28:20.799Z,95488
2022-09-22T20:31:46.206Z,95486
2022-09-22T20:35:11.517Z,95491
2022-09-22T20:38:36.871Z,95488
2022-09-22T20:42:02.151Z,95486
2022-09-22T20:45:27.498Z,95488
2022-09-22T20:48:52.824Z,95481
2022-09-22T20:52:18.121Z,95485
2022-09-22T20:55:43.464Z,95480
2022-09-22T20:59:08.786Z,95473
2022-09-22T21:02:34.124Z,95474
2022-09-22T21:05:59.474Z,95467
2022-09-22T21:09:24.855Z,95469
2022-09-22T21:12:50.190Z,95468
2022-09-22T21:16:15.575Z,95473
2022-09-22T21:19:40.939Z,95473
2022-09-22T21:23:06.313Z,95467
2022-09-22T21:26:31.602Z,95472
2022-09-22T21:29:56.946Z,95476
2022-09-22T21:33:22.349Z,95475
2022-09-22T21:36:47.682Z,95469
2022-09-22T21:40:13.161Z,95467
2022-09-22T21:43:38.384Z,95467
2022-09-22T21:47:03.725Z,95467
2022-09-22T21:50:29.091Z,95466
2022-09-22T21:53:54.504Z,95469
2022-09-22T21:57:19.859Z,95467
2022-09-22T22:00:52.456Z,95462
2022-09-22T22:04:10.732Z,95458
2022-09-22T22:07:35.856Z,95459
2022-09-22T22:11:01.186Z,95460
2022-09-22T22:14:26.555Z,95454
2022-09-22T22:17:51.857Z,95455
2022-09-22T22:21:17.176Z,95446
2022-09-22T22:24:42.614Z,95438
2022-09-22T22:28:07.837Z,95434
2022-09-22T22:31:33.204Z,95436
2022-09-22T22:34:58.491Z,95437
2022-09-22T22:38:23.808Z,95436
2022-09-22T22:41:49.147Z,95437
2022-09-22T22:45:14.494Z,95430
2022-09-22T22:48:39.893Z,95427
2022-09-22T22:52:05.226Z,95426
2022-09-22T22:55:30.587Z,95427
2022-09-22T22:58:55.974Z,95429
2022-09-22T23:02:21.308Z,95426
2022-09-22T23:05:46.663Z,95423
2022-09-22T23:09:11.959Z,95422
2022-09-22T23:12:37.340Z,95422
2022-09-22T23:16:02.737Z,95417
2022-09-22T23:19:28.021Z,95421
2022-09-22T23:22:53.396Z,95415
2022-09-22T23:26:18.730Z,95411
2022-09-22T23:29:44.085Z,95404
2022-09-22T23:33:09.465Z,95402
2022-09-22T23:36:34.812Z,95402
2022-09-22T23:40:00.218Z,95406
2022-09-22T23:43:25.547Z,95402
2022-09-22T23:46:51.045Z,95401
2022-09-22T23:50:16.356Z,95396
2022-09-22T23:53:41.685Z,95395
2022-09-22T23:57:07.058Z,95397
